Time;durP1;ratioP1;P1;durP2;ratioP2;P2;SDS_P1;SDS_P2;PMS_P1;PMS_P2;Temp;Humidity;BMP_temperature;BMP_pressure;BME280_temperature;BME280_humidity;BME280_pressure;Samples;Min_cycle;Max_cycle;Signal;HPM_P1;HPM_P2
2023/06/02 00:02:08;;;;;;;;;;;16.10;99.90;;;;;;5048677;28;20428;-75
2023/06/02 00:04:34;;;;;;;;;;;16.10;99.90;;;;;;5048547;28;19905;-75
2023/06/02 00:07:03;;;;;;;;;;;16.10;99.90;;;;;;5049678;28;19904;-74
2023/06/02 00:09:29;;;;;;;;;;;16.10;99.90;;;;;;5049699;28;19912;-75
2023/06/02 00:11:54;;;;;;;;;;;16.10;99.90;;;;;;5048367;28;20369;-75
2023/06/02 00:14:21;;;;;;;;;;;16.00;99.90;;;;;;5048191;28;19905;-74
2023/06/02 00:16:47;;;;;;;;;;;16.00;99.90;;;;;;5049439;28;20388;-74
2023/06/02 00:19:13;;;;;;;;;;;16.00;99.90;;;;;;5049311;28;19916;-75
2023/06/02 00:21:40;;;;;;;;;;;16.00;99.90;;;;;;5049624;28;19909;-75
2023/06/02 00:24:06;;;;;;;;;;;16.00;99.90;;;;;;5049769;28;19909;-74
2023/06/02 00:26:32;;;;;;;;;;;15.90;99.90;;;;;;5049465;28;19966;-74
2023/06/02 00:28:57;;;;;;;;;;;15.90;99.90;;;;;;5047894;28;20003;-75
2023/06/02 00:31:23;;;;;;;;;;;15.90;99.90;;;;;;5049222;28;19905;-74
2023/06/02 00:33:48;;;;;;;;;;;15.90;99.90;;;;;;5049382;28;19909;-75
2023/06/02 00:36:14;;;;;;;;;;;15.80;99.90;;;;;;5051757;28;19905;-75
2023/06/02 00:38:41;;;;;;;;;;;15.80;99.90;;;;;;5053335;28;20061;-74
2023/06/02 00:41:07;;;;;;;;;;;15.80;99.90;;;;;;5053069;28;20039;-74
2023/06/02 00:43:33;;;;;;;;;;;15.80;99.90;;;;;;5052018;28;20062;-74
2023/06/02 00:45:58;;;;;;;;;;;15.70;99.90;;;;;;5052064;28;19916;-74
2023/06/02 00:48:24;;;;;;;;;;;15.70;99.90;;;;;;5053131;28;20277;-74
2023/06/02 00:50:50;;;;;;;;;;;15.70;99.90;;;;;;5051749;28;19931;-75
2023/06/02 00:53:16;;;;;;;;;;;15.60;99.90;;;;;;5053047;28;20365;-74
2023/06/02 00:55:42;;;;;;;;;;;15.70;99.90;;;;;;5051527;28;19914;-74
2023/06/02 00:58:08;;;;;;;;;;;15.60;99.90;;;;;;5051503;28;19928;-74
2023/06/02 01:00:36;;;;;;;;;;;15.60;99.90;;;;;;5052985;28;19940;-74
2023/06/02 01:03:02;;;;;;;;;;;15.60;99.90;;;;;;5051477;28;19915;-75
2023/06/02 01:05:29;;;;;;;;;;;15.60;99.90;;;;;;5052980;28;20288;-74
2023/06/02 01:07:58;;;;;;;;;;;15.50;99.90;;;;;;5052727;28;19939;-74
2023/06/02 01:10:24;;;;;;;;;;;15.50;99.90;;;;;;5052683;28;19905;-74
2023/06/02 01:12:50;;;;;;;;;;;15.50;99.90;;;;;;5052860;28;19954;-74
2023/06/02 01:15:15;;;;;;;;;;;15.50;99.90;;;;;;5052393;28;19904;-74
2023/06/02 01:17:45;;;;;;;;;;;15.50;99.90;;;;;;5052602;28;20312;-74
2023/06/02 01:20:12;;;;;;;;;;;15.50;99.90;;;;;;5052516;28;20297;-74
2023/06/02 01:22:57;;;;;;;;;;;15.40;99.90;;;;;;5052577;28;19916;-74
2023/06/02 01:25:25;;;;;;;;;;;15.40;99.90;;;;;;5051888;28;19904;-74
2023/06/02 01:27:51;;;;;;;;;;;15.40;99.90;;;;;;5052050;28;19905;-74
2023/06/02 01:30:20;;;;;;;;;;;15.40;99.90;;;;;;5052373;28;20008;-74
2023/06/02 01:33:04;;;;;;;;;;;15.40;99.90;;;;;;5052398;28;19904;-74
2023/06/02 01:35:31;;;;;;;;;;;15.40;99.90;;;;;;5052516;28;19905;-75
2023/06/02 01:37:58;;;;;;;;;;;15.30;99.90;;;;;;5052214;28;19908;-75
2023/06/02 01:40:25;;;;;;;;;;;15.30;99.90;;;;;;5050820;28;19913;-76
2023/06/02 01:42:52;;;;;;;;;;;15.30;99.90;;;;;;5051010;28;19908;-75
2023/06/02 01:45:18;;;;;;;;;;;15.20;99.90;;;;;;5052025;28;20007;-74
2023/06/02 01:47:43;;;;;;;;;;;15.30;99.90;;;;;;5051543;28;19924;-76
2023/06/02 01:50:09;;;;;;;;;;;15.20;99.90;;;;;;5050651;28;19999;-75
2023/06/02 01:52:35;;;;;;;;;;;15.20;99.90;;;;;;5051135;28;20361;-75
2023/06/02 01:55:01;;;;;;;;;;;15.20;99.90;;;;;;5050505;28;19908;-75
2023/06/02 01:57:27;;;;;;;;;;;15.10;99.90;;;;;;5051954;28;19966;-76
2023/06/02 01:59:53;;;;;;;;;;;15.10;99.90;;;;;;5050785;28;20348;-76
2023/06/02 02:02:18;;;;;;;;;;;15.10;99.90;;;;;;5051795;28;19931;-76
2023/06/02 02:04:44;;;;;;;;;;;15.10;99.90;;;;;;5051867;28;19908;-75
2023/06/02 02:07:11;;;;;;;;;;;15.10;99.90;;;;;;5051526;28;19905;-76
2023/06/02 02:09:37;;;;;;;;;;;15.10;99.90;;;;;;5051595;28;20302;-76
2023/06/02 02:12:03;;;;;;;;;;;15.00;99.90;;;;;;5051793;28;19916;-74
2023/06/02 02:14:29;;;;;;;;;;;15.00;99.90;;;;;;5051657;28;19909;-75
2023/06/02 02:16:54;;;;;;;;;;;15.00;99.90;;;;;;5051613;28;20380;-75
2023/06/02 02:19:22;;;;;;;;;;;15.00;99.90;;;;;;5051395;28;19970;-74
2023/06/02 02:21:48;;;;;;;;;;;15.00;99.90;;;;;;5051385;28;19909;-75
2023/06/02 02:24:13;;;;;;;;;;;15.00;99.90;;;;;;5051450;28;19904;-75
2023/06/02 02:26:39;;;;;;;;;;;15.00;99.90;;;;;;5051464;28;19908;-75
2023/06/02 02:29:04;;;;;;;;;;;15.00;99.90;;;;;;5051254;28;19904;-75
2023/06/02 02:31:30;;;;;;;;;;;15.00;99.90;;;;;;5051473;28;20278;-74
2023/06/02 02:33:56;;;;;;;;;;;14.90;99.90;;;;;;5051399;28;19912;-77
2023/06/02 02:36:21;;;;;;;;;;;14.90;99.90;;;;;;5051176;28;20054;-75
2023/06/02 02:38:50;;;;;;;;;;;14.90;99.90;;;;;;5051168;28;20007;-76
2023/06/02 02:41:15;;;;;;;;;;;14.90;99.90;;;;;;5050958;28;19908;-76
2023/06/02 02:43:40;;;;;;;;;;;14.90;99.90;;;;;;5050932;28;20281;-75
2023/06/02 02:46:06;;;;;;;;;;;14.90;99.90;;;;;;5050781;28;20366;-75
2023/06/02 02:48:32;;;;;;;;;;;14.90;99.90;;;;;;5050950;28;19905;-75
2023/06/02 02:50:58;;;;;;;;;;;14.90;99.90;;;;;;5050699;28;19909;-74
2023/06/02 02:53:24;;;;;;;;;;;14.90;99.90;;;;;;5050871;28;20359;-74
2023/06/02 02:55:51;;;;;;;;;;;14.90;99.90;;;;;;5050723;28;19990;-75
2023/06/02 02:58:18;;;;;;;;;;;14.90;99.90;;;;;;5050092;28;20075;-75
2023/06/02 03:00:45;;;;;;;;;;;14.90;99.90;;;;;;5050154;28;19940;-74
2023/06/02 03:03:11;;;;;;;;;;;14.90;99.90;;;;;;5050567;28;19909;-75
2023/06/02 03:05:37;;;;;;;;;;;14.90;99.90;;;;;;5050674;28;19912;-75
2023/06/02 03:08:04;;;;;;;;;;;15.00;99.90;;;;;;5049469;28;20543;-75
2023/06/02 03:10:30;;;;;;;;;;;14.90;99.90;;;;;;5050575;28;19944;-75
2023/06/02 03:12:56;;;;;;;;;;;14.90;99.90;;;;;;5050522;28;20395;-75
2023/06/02 03:15:21;;;;;;;;;;;14.90;99.90;;;;;;5050510;28;19908;-76
2023/06/02 03:17:50;;;;;;;;;;;14.90;99.90;;;;;;5050640;28;19919;-75
2023/06/02 03:20:16;;;;;;;;;;;15.00;99.90;;;;;;5050316;28;20269;-75
2023/06/02 03:22:43;;;;;;;;;;;14.90;99.90;;;;;;5050323;28;19931;-75
2023/06/02 03:25:08;;;;;;;;;;;15.00;99.90;;;;;;5050034;28;19958;-76
2023/06/02 03:27:34;;;;;;;;;;;15.10;99.90;;;;;;5050399;28;19917;-76
2023/06/02 03:30:00;;;;;;;;;;;15.10;99.90;;;;;;5050246;28;19905;-76
2023/06/02 03:32:25;;;;;;;;;;;15.20;99.90;;;;;;5049909;28;20494;-76
2023/06/02 03:34:51;;;;;;;;;;;15.20;99.90;;;;;;5050198;28;19995;-75
2023/06/02 03:37:17;;;;;;;;;;;15.20;99.90;;;;;;5049977;28;19905;-75
2023/06/02 03:39:42;;;;;;;;;;;15.30;99.90;;;;;;5049877;28;19959;-76
2023/06/02 03:42:08;;;;;;;;;;;15.30;99.90;;;;;;5050010;28;19928;-75
2023/06/02 03:44:33;;;;;;;;;;;15.40;99.90;;;;;;5050015;28;19991;-75
2023/06/02 03:46:59;;;;;;;;;;;15.50;99.90;;;;;;5050074;28;20285;-75
2023/06/02 03:49:27;;;;;;;;;;;15.50;99.90;;;;;;5049799;28;19912;-75
2023/06/02 03:51:53;;;;;;;;;;;15.60;99.90;;;;;;5049975;28;19908;-75
2023/06/02 03:54:18;;;;;;;;;;;15.80;99.90;;;;;;5049860;28;20316;-75
2023/06/02 03:56:44;;;;;;;;;;;15.90;99.90;;;;;;5049915;28;19905;-76
2023/06/02 03:59:10;;;;;;;;;;;16.00;99.90;;;;;;5048058;28;20058;-75
2023/06/02 04:01:35;;;;;;;;;;;16.30;99.90;;;;;;5049982;28;19905;-75
2023/06/02 04:04:01;;;;;;;;;;;16.50;99.90;;;;;;5048476;28;19905;-75
2023/06/02 04:06:28;;;;;;;;;;;16.70;99.90;;;;;;5049851;28;19909;-76
2023/06/02 04:08:53;;;;;;;;;;;16.90;99.90;;;;;;5049911;28;19935;-75
2023/06/02 04:11:22;;;;;;;;;;;17.10;99.90;;;;;;5048882;28;19905;-74
2023/06/02 04:13:48;;;;;;;;;;;17.30;99.90;;;;;;5049639;28;19913;-75
2023/06/02 04:16:13;;;;;;;;;;;17.30;99.90;;;;;;5049571;28;19940;-76
2023/06/02 04:18:39;;;;;;;;;;;17.50;99.90;;;;;;5049351;28;19960;-75
2023/06/02 04:21:05;;;;;;;;;;;17.60;99.90;;;;;;5049344;28;19908;-74
2023/06/02 04:23:30;;;;;;;;;;;17.70;99.90;;;;;;5049383;28;19909;-75
2023/06/02 04:25:56;;;;;;;;;;;17.90;99.90;;;;;;5049209;28;20431;-76
2023/06/02 04:28:22;;;;;;;;;;;18.00;99.90;;;;;;5049240;28;20384;-75
2023/06/02 04:30:48;;;;;;;;;;;18.20;99.90;;;;;;5049607;28;20324;-75
2023/06/02 04:33:14;;;;;;;;;;;18.40;99.90;;;;;;5048034;28;19913;-75
2023/06/02 04:35:39;;;;;;;;;;;18.50;99.90;;;;;;5049043;28;19908;-75
2023/06/02 04:38:06;;;;;;;;;;;18.70;99.90;;;;;;5049488;28;19915;-75
2023/06/02 04:40:31;;;;;;;;;;;18.80;99.90;;;;;;5049235;28;19912;-75
2023/06/02 04:42:58;;;;;;;;;;;18.90;99.90;;;;;;5049420;28;19913;-75
2023/06/02 04:45:24;;;;;;;;;;;19.00;99.90;;;;;;5049401;28;19916;-75
2023/06/02 04:47:49;;;;;;;;;;;19.20;99.90;;;;;;5049269;28;20280;-75
2023/06/02 04:50:15;;;;;;;;;;;19.40;99.90;;;;;;5049296;28;20404;-75
2023/06/02 04:52:42;;;;;;;;;;;19.50;99.90;;;;;;5049020;28;19915;-76
2023/06/02 04:55:08;;;;;;;;;;;19.70;99.90;;;;;;5048699;28;19913;-76
2023/06/02 04:57:34;;;;;;;;;;;19.70;99.90;;;;;;5047433;28;20304;-75
2023/06/02 05:00:00;;;;;;;;;;;19.90;99.90;;;;;;5049043;28;20579;-74
2023/06/02 05:02:26;;;;;;;;;;;20.00;99.90;;;;;;5049345;28;19966;-76
2023/06/02 05:04:51;;;;;;;;;;;20.20;99.90;;;;;;5047920;28;20374;-76
2023/06/02 05:07:17;;;;;;;;;;;20.30;99.90;;;;;;5047770;28;19909;-75
2023/06/02 05:09:42;;;;;;;;;;;20.50;99.80;;;;;;5049250;28;19948;-76
2023/06/02 05:12:09;;;;;;;;;;;20.70;99.90;;;;;;5049127;28;19908;-77
2023/06/02 05:14:36;;;;;;;;;;;20.90;99.90;;;;;;5049270;28;19908;-76
2023/06/02 05:17:02;;;;;;;;;;;21.20;96.80;;;;;;5049044;28;19907;-75
2023/06/02 05:19:28;;;;;;;;;;;21.50;97.30;;;;;;5049118;28;20281;-75
2023/06/02 05:21:53;;;;;;;;;;;21.70;95.10;;;;;;5049194;28;19954;-75
2023/06/02 05:24:19;;;;;;;;;;;21.80;94.30;;;;;;5052590;28;19916;-76
2023/06/02 05:26:44;;;;;;;;;;;22.00;92.50;;;;;;5052769;28;19990;-75
2023/06/02 05:29:10;;;;;;;;;;;22.10;91.60;;;;;;5050852;28;19916;-75
2023/06/02 05:31:35;;;;;;;;;;;22.10;91.50;;;;;;5052271;28;20408;-76
2023/06/02 05:34:01;;;;;;;;;;;22.20;90.40;;;;;;5052293;28;20003;-75
2023/06/02 05:36:26;;;;;;;;;;;22.30;88.80;;;;;;5050906;28;19909;-76
2023/06/02 05:38:52;;;;;;;;;;;22.50;84.40;;;;;;5052275;28;20182;-75
2023/06/02 05:41:17;;;;;;;;;;;22.60;83.30;;;;;;5051953;28;19991;-75
2023/06/02 05:43:43;;;;;;;;;;;22.80;80.10;;;;;;5051340;28;19909;-76
2023/06/02 05:46:08;;;;;;;;;;;23.00;78.90;;;;;;5052089;28;19960;-76
2023/06/02 05:48:34;;;;;;;;;;;23.40;77.20;;;;;;5050684;28;20146;-74
2023/06/02 05:50:59;;;;;;;;;;;23.80;74.00;;;;;;5051879;28;19904;-75
2023/06/02 05:53:25;;;;;;;;;;;24.30;71.80;;;;;;5050709;28;19909;-76
2023/06/02 05:55:50;;;;;;;;;;;25.20;68.70;;;;;;5050830;28;20281;-77
2023/06/02 05:58:18;;;;;;;;;;;26.20;63.70;;;;;;5051804;28;20362;-76
2023/06/02 06:00:43;;;;;;;;;;;27.50;59.10;;;;;;5050379;28;20423;-74
2023/06/02 06:03:09;;;;;;;;;;;28.20;57.40;;;;;;5051535;28;19912;-75
2023/06/02 06:05:34;;;;;;;;;;;28.20;57.90;;;;;;5051712;28;19908;-73
2023/06/02 06:08:00;;;;;;;;;;;28.80;55.50;;;;;;5051634;28;19955;-74
2023/06/02 06:10:26;;;;;;;;;;;30.00;53.20;;;;;;5051408;28;19915;-73
2023/06/02 06:12:51;;;;;;;;;;;31.10;49.40;;;;;;5051313;28;19933;-74
2023/06/02 06:15:17;;;;;;;;;;;31.90;47.70;;;;;;5051209;28;20266;-74
2023/06/02 06:17:49;;;;;;;;;;;32.50;47.00;;;;;;5051171;28;20186;-74
2023/06/02 06:20:15;;;;;;;;;;;33.20;45.80;;;;;;5051159;28;20301;-74
2023/06/02 06:22:41;;;;;;;;;;;33.60;44.10;;;;;;5050089;28;19999;-74
2023/06/02 06:25:07;;;;;;;;;;;33.80;42.70;;;;;;5049751;28;20401;-75
2023/06/02 06:27:33;;;;;;;;;;;33.90;42.30;;;;;;5051210;28;19904;-74
2023/06/02 06:29:58;;;;;;;;;;;34.40;41.50;;;;;;5050989;28;19908;-73
2023/06/02 06:32:24;;;;;;;;;;;34.60;40.60;;;;;;5051196;28;19905;-74
2023/06/02 06:34:49;;;;;;;;;;;34.50;40.50;;;;;;5051056;28;19909;-74
2023/06/02 06:37:15;;;;;;;;;;;34.50;40.30;;;;;;5049607;28;20266;-75
2023/06/02 06:39:41;;;;;;;;;;;34.60;40.10;;;;;;5050928;28;20477;-74
2023/06/02 06:42:07;;;;;;;;;;;34.10;40.60;;;;;;5051032;28;20483;-74
2023/06/02 06:44:33;;;;;;;;;;;34.00;40.50;;;;;;5051035;28;19928;-74
2023/06/02 06:46:58;;;;;;;;;;;34.00;41.50;;;;;;5050689;28;19909;-75
2023/06/02 06:49:24;;;;;;;;;;;34.10;41.30;;;;;;5050725;28;20021;-74
2023/06/02 06:51:49;;;;;;;;;;;34.30;41.20;;;;;;5050781;28;19951;-74
2023/06/02 06:54:15;;;;;;;;;;;34.10;40.90;;;;;;5050909;28;20411;-74
2023/06/02 06:56:43;;;;;;;;;;;34.20;40.80;;;;;;5050763;28;20391;-75
2023/06/02 06:59:10;;;;;;;;;;;34.50;40.50;;;;;;5048778;28;20313;-74
2023/06/02 07:01:36;;;;;;;;;;;34.50;41.00;;;;;;5050638;28;19908;-74
2023/06/02 07:04:02;;;;;;;;;;;34.80;40.90;;;;;;5050847;28;19915;-74
2023/06/02 07:06:27;;;;;;;;;;;34.80;41.20;;;;;;5050592;28;19966;-73
2023/06/02 07:08:53;;;;;;;;;;;35.00;40.50;;;;;;5049220;28;19951;-75
2023/06/02 07:11:18;;;;;;;;;;;35.10;40.90;;;;;;5048762;28;20285;-74
2023/06/02 07:13:44;;;;;;;;;;;35.00;40.50;;;;;;5050291;28;19932;-74
2023/06/02 07:16:09;;;;;;;;;;;35.10;41.10;;;;;;5049177;28;19909;-74
2023/06/02 07:18:35;;;;;;;;;;;35.20;40.60;;;;;;5050682;28;19967;-74
2023/06/02 07:21:00;;;;;;;;;;;35.10;42.20;;;;;;5050188;28;19908;-75
2023/06/02 07:23:26;;;;;;;;;;;35.00;41.90;;;;;;5050382;28;20250;-75
2023/06/02 07:25:52;;;;;;;;;;;35.30;41.90;;;;;;5050452;28;19905;-75
2023/06/02 07:28:17;;;;;;;;;;;35.30;42.50;;;;;;5050368;28;19915;-74
2023/06/02 07:30:47;;;;;;;;;;;35.10;42.60;;;;;;5050243;28;19905;-74
2023/06/02 07:33:16;;;;;;;;;;;35.10;42.40;;;;;;5050005;28;19912;-74
2023/06/02 07:35:41;;;;;;;;;;;35.10;41.40;;;;;;5050134;28;19950;-74
2023/06/02 07:38:07;;;;;;;;;;;35.30;41.40;;;;;;5050031;28;19909;-74
2023/06/02 07:40:33;;;;;;;;;;;35.10;42.20;;;;;;5049878;28;19912;-74
2023/06/02 07:42:58;;;;;;;;;;;35.00;41.30;;;;;;5049989;28;19948;-74
2023/06/02 07:45:24;;;;;;;;;;;35.10;41.40;;;;;;5049426;28;19912;-74
2023/06/02 07:47:49;;;;;;;;;;;35.50;41.10;;;;;;5049519;28;20408;-74
2023/06/02 07:50:15;;;;;;;;;;;35.30;39.20;;;;;;5050007;28;19912;-74
2023/06/02 07:52:40;;;;;;;;;;;35.40;39.00;;;;;;5049931;28;19905;-75
2023/06/02 07:55:06;;;;;;;;;;;35.50;38.70;;;;;;5049733;28;19916;-74
2023/06/02 07:57:32;;;;;;;;;;;35.20;38.60;;;;;;5049467;28;19921;-74
2023/06/02 07:59:57;;;;;;;;;;;35.50;39.50;;;;;;5049650;28;20471;-75
2023/06/02 08:02:23;;;;;;;;;;;35.40;39.40;;;;;;5049689;28;19935;-74
2023/06/02 08:04:48;;;;;;;;;;;35.40;39.40;;;;;;5049725;28;20693;-74
2023/06/02 08:07:14;;;;;;;;;;;35.40;38.20;;;;;;5049597;28;20428;-74
2023/06/02 08:09:39;;;;;;;;;;;35.60;38.30;;;;;;5049473;28;20007;-73
2023/06/02 08:12:05;;;;;;;;;;;35.70;40.00;;;;;;5059829;28;19977;-75
2023/06/02 08:14:31;;;;;;;;;;;36.00;40.00;;;;;;5049335;28;19917;-75
2023/06/02 08:16:56;;;;;;;;;;;36.00;38.50;;;;;;5049456;28;19905;-76
2023/06/02 08:19:25;;;;;;;;;;;35.90;36.50;;;;;;5049318;28;19916;-75
2023/06/02 08:21:51;;;;;;;;;;;35.90;36.40;;;;;;5049406;28;19978;-76
2023/06/02 08:24:16;;;;;;;;;;;35.70;37.30;;;;;;5049586;28;19987;-73
2023/06/02 08:26:43;;;;;;;;;;;35.90;34.90;;;;;;5049537;28;19908;-75
2023/06/02 08:29:08;;;;;;;;;;;35.90;33.30;;;;;;5049351;28;19983;-75
2023/06/02 08:31:35;;;;;;;;;;;36.00;30.60;;;;;;5051769;28;20007;-75
2023/06/02 08:34:02;;;;;;;;;;;35.50;32.30;;;;;;5049344;28;19909;-74
2023/06/02 08:36:29;;;;;;;;;;;35.40;31.90;;;;;;5049256;28;20016;-74
2023/06/02 08:38:55;;;;;;;;;;;35.70;32.80;;;;;;5048989;28;20416;-76
2023/06/02 08:41:20;;;;;;;;;;;35.90;31.30;;;;;;5048957;28;19991;-75
2023/06/02 08:43:46;;;;;;;;;;;35.60;33.00;;;;;;5049318;28;19905;-75
2023/06/02 08:46:15;;;;;;;;;;;35.80;30.90;;;;;;5049163;28;19927;-75
2023/06/02 08:48:45;;;;;;;;;;;35.90;31.30;;;;;;5049011;28;19905;-75
2023/06/02 08:51:11;;;;;;;;;;;35.80;30.60;;;;;;5048658;28;19905;-75
2023/06/02 08:53:37;;;;;;;;;;;35.90;31.60;;;;;;5048851;28;19905;-74
2023/06/02 08:56:03;;;;;;;;;;;36.00;30.40;;;;;;5048925;28;20352;-74
2023/06/02 08:58:29;;;;;;;;;;;36.10;30.00;;;;;;5051505;28;19978;-75
2023/06/02 09:00:55;;;;;;;;;;;36.10;30.70;;;;;;5052457;28;19912;-75
2023/06/02 09:03:21;;;;;;;;;;;36.40;31.70;;;;;;5052805;28;20019;-75
2023/06/02 09:05:47;;;;;;;;;;;36.40;32.10;;;;;;5051135;28;19923;-74
2023/06/02 09:08:13;;;;;;;;;;;36.40;30.90;;;;;;5052742;28;19962;-74
2023/06/02 09:10:44;;;;;;;;;;;36.40;31.10;;;;;;5051770;28;19915;-75
2023/06/02 09:13:10;;;;;;;;;;;36.10;31.40;;;;;;5052495;28;20337;-75
2023/06/02 09:15:53;;;;;;;;;;;36.10;32.10;;;;;;5052411;28;20388;-74
2023/06/02 09:18:19;;;;;;;;;;;36.00;31.90;;;;;;5052565;28;20004;-74
2023/06/02 09:20:47;;;;;;;;;;;36.20;32.10;;;;;;5052288;28;20023;-74
2023/06/02 09:23:13;;;;;;;;;;;36.30;32.00;;;;;;5052387;28;19995;-75
2023/06/02 09:25:40;;;;;;;;;;;36.40;30.90;;;;;;5052349;28;19999;-75
2023/06/02 09:28:07;;;;;;;;;;;36.20;30.10;;;;;;5052574;28;20369;-74
2023/06/02 09:30:33;;;;;;;;;;;36.30;31.30;;;;;;5052217;28;19908;-74
2023/06/02 09:33:00;;;;;;;;;;;36.20;32.10;;;;;;5051037;28;19916;-75
2023/06/02 09:35:35;;;;;;;;;;;36.30;31.70;;;;;;5052062;28;19951;-75
2023/06/02 09:38:02;;;;;;;;;;;36.20;31.80;;;;;;5084564;28;19905;-74
2023/06/02 09:40:28;;;;;;;;;;;36.40;30.80;;;;;;5052169;28;20373;-74
2023/06/02 09:42:53;;;;;;;;;;;36.40;31.20;;;;;;5050927;28;19959;-74
2023/06/02 09:45:19;;;;;;;;;;;36.20;31.40;;;;;;5050452;28;19905;-75
2023/06/02 09:47:45;;;;;;;;;;;36.20;31.30;;;;;;5051875;28;20419;-75
2023/06/02 09:50:30;;;;;;;;;;;36.10;30.90;;;;;;5052034;28;19905;-75
2023/06/02 09:52:59;;;;;;;;;;;36.10;31.20;;;;;;5051825;28;20016;-75
2023/06/02 09:55:25;;;;;;;;;;;35.90;31.00;;;;;;5050639;28;19916;-74
2023/06/02 09:57:51;;;;;;;;;;;35.70;31.90;;;;;;5050431;28;19921;-75
2023/06/02 10:00:17;;;;;;;;;;;35.70;32.40;;;;;;5051559;28;19940;-74
2023/06/02 10:02:43;;;;;;;;;;;35.40;31.80;;;;;;5050284;28;20384;-74
2023/06/02 10:05:09;;;;;;;;;;;35.00;32.10;;;;;;5051449;28;19908;-73
2023/06/02 10:07:45;;;;;;;;;;;34.50;34.10;;;;;;5049826;28;19911;-74
2023/06/02 10:10:11;;;;;;;;;;;34.00;33.40;;;;;;5050289;28;19904;-74
2023/06/02 10:12:46;;;;;;;;;;;33.40;34.50;;;;;;5084273;28;20098;-74
2023/06/02 10:15:14;;;;;;;;;;;33.00;34.70;;;;;;5051462;28;19908;-74
2023/06/02 10:17:59;;;;;;;;;;;32.60;34.50;;;;;;5051308;28;19955;-73
2023/06/02 10:20:45;;;;;;;;;;;32.40;35.10;;;;;;5051273;28;19923;-73
2023/06/02 10:23:29;;;;;;;;;;;32.10;34.50;;;;;;5029728;28;19919;-74
2023/06/02 10:26:03;;;;;;;;;;;31.70;35.60;;;;;;5051375;28;19985;-74
2023/06/02 10:28:29;;;;;;;;;;;31.60;37.30;;;;;;5051293;28;20285;-74
2023/06/02 10:31:05;;;;;;;;;;;31.40;37.40;;;;;;5051248;28;19908;-74
2023/06/02 10:33:43;;;;;;;;;;;31.30;36.90;;;;;;5050770;28;19905;-73
2023/06/02 10:36:09;;;;;;;;;;;31.30;38.00;;;;;;5051025;28;19939;-74
2023/06/02 10:38:36;;;;;;;;;;;31.20;36.80;;;;;;5049671;28;19908;-73
2023/06/02 10:41:02;;;;;;;;;;;31.10;35.20;;;;;;5050896;28;19955;-73
2023/06/02 10:43:27;;;;;;;;;;;30.60;36.30;;;;;;5051027;28;19937;-72
2023/06/02 10:46:13;;;;;;;;;;;30.40;33.90;;;;;;5051015;28;20357;-73
2023/06/02 10:48:39;;;;;;;;;;;30.20;34.00;;;;;;5050853;28;19908;-74
2023/06/02 10:51:06;;;;;;;;;;;30.10;36.40;;;;;;5049226;28;20373;-73
2023/06/02 10:53:32;;;;;;;;;;;30.10;38.50;;;;;;5051020;28;19909;-74
2023/06/02 10:56:17;;;;;;;;;;;30.10;37.40;;;;;;5050837;28;19978;-74
2023/06/02 10:58:49;;;;;;;;;;;30.10;38.50;;;;;;5050080;28;19955;-74
2023/06/02 11:01:34;;;;;;;;;;;30.20;37.30;;;;;;5050524;28;19908;-74
2023/06/02 11:04:20;;;;;;;;;;;30.20;37.40;;;;;;5050870;28;19915;-74
2023/06/02 11:06:45;;;;;;;;;;;30.10;37.00;;;;;;5050678;28;19908;-75
2023/06/02 11:09:31;;;;;;;;;;;30.20;37.30;;;;;;5050344;28;19978;-76
2023/06/02 11:11:56;;;;;;;;;;;30.20;36.70;;;;;;5050368;28;20358;-74
2023/06/02 11:14:22;;;;;;;;;;;30.00;36.00;;;;;;5049087;28;19991;-75
2023/06/02 11:17:07;;;;;;;;;;;29.80;35.40;;;;;;5050413;28;20391;-75
2023/06/02 11:19:47;;;;;;;;;;;29.80;39.10;;;;;;5049551;28;20407;-74
2023/06/02 11:22:17;;;;;;;;;;;29.90;39.30;;;;;;5050474;28;20369;-74
2023/06/02 11:24:43;;;;;;;;;;;29.90;38.60;;;;;;5050218;28;20250;-74
2023/06/02 11:27:08;;;;;;;;;;;29.90;38.50;;;;;;5050118;28;19940;-74
2023/06/02 11:29:34;;;;;;;;;;;29.90;39.00;;;;;;5049964;28;19955;-74
2023/06/02 11:32:00;;;;;;;;;;;29.90;40.00;;;;;;5050109;28;19908;-74
2023/06/02 11:34:26;;;;;;;;;;;30.00;40.20;;;;;;5050083;28;20453;-74
2023/06/02 11:36:53;;;;;;;;;;;30.10;40.00;;;;;;5050285;28;19909;-74
2023/06/02 11:39:18;;;;;;;;;;;30.20;39.80;;;;;;5049739;28;20332;-74
2023/06/02 11:41:57;;;;;;;;;;;30.30;39.70;;;;;;5048516;28;20402;-75
2023/06/02 11:44:22;;;;;;;;;;;30.40;39.30;;;;;;5049764;28;19905;-76
2023/06/02 11:46:48;;;;;;;;;;;30.40;38.50;;;;;;5049973;28;19909;-76
2023/06/02 11:49:14;;;;;;;;;;;30.40;39.20;;;;;;5049735;28;19904;-75
2023/06/02 11:51:39;;;;;;;;;;;30.30;38.60;;;;;;5049786;28;19962;-74
2023/06/02 11:54:07;;;;;;;;;;;30.30;38.80;;;;;;5049747;28;19940;-75
2023/06/02 11:56:33;;;;;;;;;;;30.30;39.60;;;;;;5049817;28;19944;-74
2023/06/02 11:58:58;;;;;;;;;;;30.20;38.70;;;;;;5049745;28;20355;-76
2023/06/02 12:01:30;;;;;;;;;;;29.90;39.50;;;;;;5049609;28;19962;-74
2023/06/02 12:04:03;;;;;;;;;;;29.60;40.30;;;;;;5049637;28;19915;-74
2023/06/02 12:06:30;;;;;;;;;;;29.60;40.80;;;;;;5049743;28;20006;-74
2023/06/02 12:08:55;;;;;;;;;;;29.60;39.10;;;;;;5048194;28;19911;-74
2023/06/02 12:11:22;;;;;;;;;;;29.70;40.20;;;;;;5049512;28;19908;-75
2023/06/02 12:14:04;;;;;;;;;;;29.90;40.80;;;;;;5049433;28;19940;-74
2023/06/02 12:16:29;;;;;;;;;;;29.90;41.00;;;;;;5049368;28;20395;-74
2023/06/02 12:19:10;;;;;;;;;;;30.00;40.80;;;;;;5049252;28;19948;-75
2023/06/02 12:21:38;;;;;;;;;;;30.10;40.00;;;;;;5049392;28;20019;-75
2023/06/02 12:24:04;;;;;;;;;;;30.10;39.30;;;;;;5049476;28;19962;-74
2023/06/02 12:26:40;;;;;;;;;;;30.10;38.90;;;;;;5049454;28;19904;-74
2023/06/02 12:29:06;;;;;;;;;;;30.10;37.50;;;;;;5049116;28;19905;-74
2023/06/02 12:31:31;;;;;;;;;;;30.00;37.00;;;;;;5050742;28;19905;-74
2023/06/02 12:33:57;;;;;;;;;;;30.00;38.00;;;;;;5052109;28;19912;-75
2023/06/02 12:36:22;;;;;;;;;;;29.90;36.60;;;;;;5052307;28;19952;-74
2023/06/02 12:38:48;;;;;;;;;;;29.90;38.20;;;;;;5052165;28;19912;-76
2023/06/02 12:41:13;;;;;;;;;;;30.00;39.10;;;;;;5053048;28;19971;-74
2023/06/02 12:43:39;;;;;;;;;;;29.90;38.70;;;;;;5053137;28;20452;-75
2023/06/02 12:46:06;;;;;;;;;;;29.80;39.00;;;;;;5053040;28;19905;-74
2023/06/02 12:48:31;;;;;;;;;;;29.80;39.30;;;;;;5053171;28;19951;-75
2023/06/02 12:50:57;;;;;;;;;;;29.80;38.00;;;;;;5051788;28;20130;-74
2023/06/02 12:53:22;;;;;;;;;;;29.80;37.00;;;;;;5053041;28;19904;-75
2023/06/02 12:55:48;;;;;;;;;;;29.60;37.00;;;;;;5052899;28;20272;-75
2023/06/02 12:58:13;;;;;;;;;;;29.50;37.70;;;;;;5051627;28;19927;-75
2023/06/02 13:00:40;;;;;;;;;;;29.50;35.50;;;;;;5051548;28;19912;-74
2023/06/02 13:03:07;;;;;;;;;;;29.50;36.00;;;;;;5051534;28;20506;-75
2023/06/02 13:05:34;;;;;;;;;;;29.50;36.30;;;;;;5051614;28;19908;-75
2023/06/02 13:08:00;;;;;;;;;;;29.50;36.00;;;;;;5052772;28;20004;-74
2023/06/02 13:10:25;;;;;;;;;;;29.50;34.90;;;;;;5052932;28;20023;-76
2023/06/02 13:12:51;;;;;;;;;;;29.50;36.80;;;;;;5051390;28;20348;-74
2023/06/02 13:15:16;;;;;;;;;;;29.50;37.30;;;;;;5052302;28;20338;-75
2023/06/02 13:17:42;;;;;;;;;;;29.60;36.70;;;;;;5051505;28;20361;-76
2023/06/02 13:20:08;;;;;;;;;;;29.60;36.90;;;;;;5052815;28;19920;-74
2023/06/02 13:22:33;;;;;;;;;;;29.50;36.80;;;;;;5051228;28;19911;-74
2023/06/02 13:24:59;;;;;;;;;;;29.50;37.50;;;;;;5052449;28;19908;-76
2023/06/02 13:27:24;;;;;;;;;;;29.40;38.80;;;;;;5052367;28;19999;-76
2023/06/02 13:29:50;;;;;;;;;;;29.50;39.50;;;;;;5051257;28;19909;-76
2023/06/02 13:32:16;;;;;;;;;;;29.50;38.60;;;;;;5051169;28;19912;-74
2023/06/02 13:34:52;;;;;;;;;;;29.50;38.70;;;;;;5052198;28;19915;-74
2023/06/02 13:37:17;;;;;;;;;;;29.50;38.50;;;;;;5050874;28;19908;-74
2023/06/02 13:39:43;;;;;;;;;;;29.40;38.20;;;;;;5051977;28;20365;-76
2023/06/02 13:42:08;;;;;;;;;;;29.40;38.90;;;;;;5052157;28;20273;-75
2023/06/02 13:44:34;;;;;;;;;;;29.40;37.90;;;;;;5050005;28;19927;-75
2023/06/02 13:46:59;;;;;;;;;;;29.30;38.20;;;;;;5052143;28;19967;-74
2023/06/02 13:49:25;;;;;;;;;;;29.30;36.70;;;;;;5052108;28;20384;-74
2023/06/02 13:51:51;;;;;;;;;;;29.30;38.00;;;;;;5051793;28;19908;-75
2023/06/02 13:54:16;;;;;;;;;;;29.40;38.10;;;;;;5051953;28;19905;-74
2023/06/02 13:56:43;;;;;;;;;;;29.40;38.60;;;;;;5052281;28;19911;-74
2023/06/02 13:59:09;;;;;;;;;;;29.40;39.50;;;;;;5051442;28;19958;-74
2023/06/02 14:01:34;;;;;;;;;;;29.50;38.40;;;;;;5051722;28;19994;-74
2023/06/02 14:04:00;;;;;;;;;;;29.40;38.40;;;;;;5051715;28;20388;-74
2023/06/02 14:06:26;;;;;;;;;;;29.40;38.90;;;;;;5051768;28;20428;-74
2023/06/02 14:08:52;;;;;;;;;;;29.30;39.00;;;;;;5050282;28;19914;-74
2023/06/02 14:11:17;;;;;;;;;;;29.20;38.50;;;;;;5083748;28;19952;-73
2023/06/02 14:13:43;;;;;;;;;;;29.20;38.90;;;;;;5051373;28;19936;-73
2023/06/02 14:16:08;;;;;;;;;;;29.20;38.40;;;;;;5050290;28;19912;-74